sensor_id;sensor_type;location;lat;lon;timestamp;P1;durP1;ratioP1;P2;durP2;ratioP2
29788;SDS011;64899;42.660;23.268;2023-11-22T00:00:40;37.08;;;21.17;;
29788;SDS011;64899;42.660;23.268;2023-11-22T00:03:05;35.67;;;21.00;;
29788;SDS011;64899;42.660;23.268;2023-11-22T00:05:31;39.10;;;21.20;;
29788;SDS011;64899;42.660;23.268;2023-11-22T00:07:56;37.72;;;20.02;;
29788;SDS011;64899;42.660;23.268;2023-11-22T00:10:22;30.50;;;18.35;;
29788;SDS011;64899;42.660;23.268;2023-11-22T00:12:48;29.95;;;17.80;;
29788;SDS011;64899;42.660;23.268;2023-11-22T00:15:13;35.95;;;19.55;;
29788;SDS011;64899;42.660;23.268;2023-11-22T00:17:43;33.00;;;18.27;;
29788;SDS011;64899;42.660;23.268;2023-11-22T00:20:09;32.65;;;18.27;;
29788;SDS011;64899;42.660;23.268;2023-11-22T00:22:35;36.97;;;20.40;;
29788;SDS011;64899;42.660;23.268;2023-11-22T00:25:00;37.28;;;18.85;;
29788;SDS011;64899;42.660;23.268;2023-11-22T00:27:29;32.50;;;18.55;;
29788;SDS011;64899;42.660;23.268;2023-11-22T00:29:56;32.17;;;18.45;;
29788;SDS011;64899;42.660;23.268;2023-11-22T00:32:22;37.17;;;19.92;;
29788;SDS011;64899;42.660;23.268;2023-11-22T00:34:47;34.63;;;18.48;;
29788;SDS011;64899;42.660;23.268;2023-11-22T00:37:13;38.50;;;18.80;;
29788;SDS011;64899;42.660;23.268;2023-11-22T00:39:39;33.75;;;20.05;;
29788;SDS011;64899;42.660;23.268;2023-11-22T00:42:04;35.55;;;20.85;;
29788;SDS011;64899;42.660;23.268;2023-11-22T00:44:30;38.53;;;20.23;;
29788;SDS011;64899;42.660;23.268;2023-11-22T00:46:56;43.25;;;22.65;;
29788;SDS011;64899;42.660;23.268;2023-11-22T00:49:22;33.38;;;19.20;;
29788;SDS011;64899;42.660;23.268;2023-11-22T00:51:48;37.17;;;19.05;;
29788;SDS011;64899;42.660;23.268;2023-11-22T00:54:13;33.72;;;19.90;;
29788;SDS011;64899;42.660;23.268;2023-11-22T00:56:38;37.03;;;20.10;;
29788;SDS011;64899;42.660;23.268;2023-11-22T00:59:04;32.40;;;18.88;;
29788;SDS011;64899;42.660;23.268;2023-11-22T01:01:29;35.28;;;19.23;;
29788;SDS011;64899;42.660;23.268;2023-11-22T01:03:56;32.97;;;19.02;;
29788;SDS011;64899;42.660;23.268;2023-11-22T01:06:22;32.10;;;18.08;;
29788;SDS011;64899;42.660;23.268;2023-11-22T01:08:48;28.70;;;17.27;;
29788;SDS011;64899;42.660;23.268;2023-11-22T01:11:13;34.67;;;18.77;;
29788;SDS011;64899;42.660;23.268;2023-11-22T01:13:39;35.45;;;18.27;;
29788;SDS011;64899;42.660;23.268;2023-11-22T01:16:08;35.28;;;19.48;;
29788;SDS011;64899;42.660;23.268;2023-11-22T01:18:34;35.53;;;19.05;;
29788;SDS011;64899;42.660;23.268;2023-11-22T01:21:00;35.17;;;18.10;;
29788;SDS011;64899;42.660;23.268;2023-11-22T01:23:25;30.48;;;17.83;;
29788;SDS011;64899;42.660;23.268;2023-11-22T01:25:50;30.30;;;18.08;;
29788;SDS011;64899;42.660;23.268;2023-11-22T01:28:16;32.83;;;18.98;;
29788;SDS011;64899;42.660;23.268;2023-11-22T01:30:44;31.55;;;18.58;;
29788;SDS011;64899;42.660;23.268;2023-11-22T01:33:12;32.42;;;18.00;;
29788;SDS011;64899;42.660;23.268;2023-11-22T01:35:38;32.92;;;18.25;;
29788;SDS011;64899;42.660;23.268;2023-11-22T01:38:03;33.78;;;18.10;;
29788;SDS011;64899;42.660;23.268;2023-11-22T01:40:30;31.38;;;16.92;;
29788;SDS011;64899;42.660;23.268;2023-11-22T01:42:55;33.13;;;18.65;;
29788;SDS011;64899;42.660;23.268;2023-11-22T01:45:21;32.97;;;18.75;;
29788;SDS011;64899;42.660;23.268;2023-11-22T01:47:47;31.45;;;18.08;;
29788;SDS011;64899;42.660;23.268;2023-11-22T01:50:12;30.63;;;17.40;;
29788;SDS011;64899;42.660;23.268;2023-11-22T01:52:39;31.40;;;18.17;;
29788;SDS011;64899;42.660;23.268;2023-11-22T01:55:05;32.83;;;17.98;;
29788;SDS011;64899;42.660;23.268;2023-11-22T01:57:31;30.30;;;19.55;;
29788;SDS011;64899;42.660;23.268;2023-11-22T02:00:01;31.05;;;19.40;;
29788;SDS011;64899;42.660;23.268;2023-11-22T02:02:28;34.47;;;19.42;;
29788;SDS011;64899;42.660;23.268;2023-11-22T02:04:58;26.80;;;17.08;;
29788;SDS011;64899;42.660;23.268;2023-11-22T02:07:23;30.33;;;17.17;;
29788;SDS011;64899;42.660;23.268;2023-11-22T02:09:48;28.45;;;17.02;;
29788;SDS011;64899;42.660;23.268;2023-11-22T02:12:14;28.17;;;15.95;;
29788;SDS011;64899;42.660;23.268;2023-11-22T02:14:40;28.10;;;16.38;;
29788;SDS011;64899;42.660;23.268;2023-11-22T02:17:05;34.38;;;17.33;;
29788;SDS011;64899;42.660;23.268;2023-11-22T02:19:30;28.52;;;16.17;;
29788;SDS011;64899;42.660;23.268;2023-11-22T02:21:56;30.05;;;16.77;;
29788;SDS011;64899;42.660;23.268;2023-11-22T02:24:21;26.75;;;15.43;;
29788;SDS011;64899;42.660;23.268;2023-11-22T02:26:47;28.38;;;16.50;;
29788;SDS011;64899;42.660;23.268;2023-11-22T02:29:12;28.85;;;16.90;;
29788;SDS011;64899;42.660;23.268;2023-11-22T02:31:41;27.85;;;16.15;;
29788;SDS011;64899;42.660;23.268;2023-11-22T02:34:08;33.53;;;16.17;;
29788;SDS011;64899;42.660;23.268;2023-11-22T02:36:33;28.75;;;16.88;;
29788;SDS011;64899;42.660;23.268;2023-11-22T02:38:59;26.85;;;16.33;;
29788;SDS011;64899;42.660;23.268;2023-11-22T02:41:26;25.40;;;16.45;;
29788;SDS011;64899;42.660;23.268;2023-11-22T02:43:54;32.72;;;17.88;;
29788;SDS011;64899;42.660;23.268;2023-11-22T02:46:20;30.67;;;17.15;;
29788;SDS011;64899;42.660;23.268;2023-11-22T02:48:45;29.30;;;17.10;;
29788;SDS011;64899;42.660;23.268;2023-11-22T02:51:11;33.00;;;17.02;;
29788;SDS011;64899;42.660;23.268;2023-11-22T02:53:36;30.70;;;18.00;;
29788;SDS011;64899;42.660;23.268;2023-11-22T02:56:02;29.15;;;16.38;;
29788;SDS011;64899;42.660;23.268;2023-11-22T02:58:30;27.13;;;16.13;;
29788;SDS011;64899;42.660;23.268;2023-11-22T03:00:56;30.17;;;15.93;;
29788;SDS011;64899;42.660;23.268;2023-11-22T03:03:22;26.50;;;15.63;;
29788;SDS011;64899;42.660;23.268;2023-11-22T03:05:49;29.45;;;16.55;;
29788;SDS011;64899;42.660;23.268;2023-11-22T03:08:15;28.80;;;16.75;;
29788;SDS011;64899;42.660;23.268;2023-11-22T03:10:41;26.88;;;16.02;;
29788;SDS011;64899;42.660;23.268;2023-11-22T03:13:07;28.05;;;15.40;;
29788;SDS011;64899;42.660;23.268;2023-11-22T03:15:33;26.40;;;15.50;;
29788;SDS011;64899;42.660;23.268;2023-11-22T03:17:59;29.48;;;16.70;;
29788;SDS011;64899;42.660;23.268;2023-11-22T03:20:26;27.23;;;15.38;;
29788;SDS011;64899;42.660;23.268;2023-11-22T03:22:51;29.05;;;17.02;;
29788;SDS011;64899;42.660;23.268;2023-11-22T03:25:17;31.40;;;17.05;;
29788;SDS011;64899;42.660;23.268;2023-11-22T03:27:43;24.33;;;15.88;;
29788;SDS011;64899;42.660;23.268;2023-11-22T03:30:09;29.45;;;16.88;;
29788;SDS011;64899;42.660;23.268;2023-11-22T03:32:37;26.25;;;16.30;;
29788;SDS011;64899;42.660;23.268;2023-11-22T03:35:04;27.88;;;16.27;;
29788;SDS011;64899;42.660;23.268;2023-11-22T03:37:31;31.10;;;16.48;;
29788;SDS011;64899;42.660;23.268;2023-11-22T03:39:57;30.40;;;17.05;;
29788;SDS011;64899;42.660;23.268;2023-11-22T03:42:22;27.90;;;16.00;;
29788;SDS011;64899;42.660;23.268;2023-11-22T03:44:48;28.83;;;15.43;;
29788;SDS011;64899;42.660;23.268;2023-11-22T03:47:14;26.02;;;16.05;;
29788;SDS011;64899;42.660;23.268;2023-11-22T03:49:40;29.10;;;15.65;;
29788;SDS011;64899;42.660;23.268;2023-11-22T03:52:06;29.27;;;15.82;;
29788;SDS011;64899;42.660;23.268;2023-11-22T03:54:33;30.10;;;15.50;;
29788;SDS011;64899;42.660;23.268;2023-11-22T03:56:58;30.38;;;15.63;;
29788;SDS011;64899;42.660;23.268;2023-11-22T03:59:24;23.92;;;15.02;;
29788;SDS011;64899;42.660;23.268;2023-11-22T04:01:49;25.25;;;14.43;;
29788;SDS011;64899;42.660;23.268;2023-11-22T04:04:16;26.30;;;15.38;;
29788;SDS011;64899;42.660;23.268;2023-11-22T04:06:41;28.90;;;15.50;;
29788;SDS011;64899;42.660;23.268;2023-11-22T04:09:06;23.80;;;14.48;;
29788;SDS011;64899;42.660;23.268;2023-11-22T04:11:33;30.42;;;15.63;;
29788;SDS011;64899;42.660;23.268;2023-11-22T04:13:59;27.48;;;13.70;;
29788;SDS011;64899;42.660;23.268;2023-11-22T04:16:25;24.45;;;14.88;;
29788;SDS011;64899;42.660;23.268;2023-11-22T04:18:50;29.25;;;15.55;;
29788;SDS011;64899;42.660;23.268;2023-11-22T04:21:16;29.60;;;16.45;;
29788;SDS011;64899;42.660;23.268;2023-11-22T04:23:41;28.65;;;16.15;;
29788;SDS011;64899;42.660;23.268;2023-11-22T04:26:07;31.55;;;15.63;;
29788;SDS011;64899;42.660;23.268;2023-11-22T04:28:33;29.80;;;16.08;;
29788;SDS011;64899;42.660;23.268;2023-11-22T04:30:59;27.08;;;15.63;;
29788;SDS011;64899;42.660;23.268;2023-11-22T04:33:25;26.83;;;15.27;;
29788;SDS011;64899;42.660;23.268;2023-11-22T04:35:53;26.08;;;15.18;;
29788;SDS011;64899;42.660;23.268;2023-11-22T04:38:18;31.70;;;17.00;;
29788;SDS011;64899;42.660;23.268;2023-11-22T04:40:44;27.13;;;15.93;;
29788;SDS011;64899;42.660;23.268;2023-11-22T04:43:09;34.15;;;15.73;;
29788;SDS011;64899;42.660;23.268;2023-11-22T04:45:35;32.45;;;17.60;;
29788;SDS011;64899;42.660;23.268;2023-11-22T04:48:00;30.85;;;17.70;;
29788;SDS011;64899;42.660;23.268;2023-11-22T04:50:26;28.92;;;16.83;;
29788;SDS011;64899;42.660;23.268;2023-11-22T04:52:51;32.75;;;16.42;;
29788;SDS011;64899;42.660;23.268;2023-11-22T04:55:17;26.85;;;15.02;;
29788;SDS011;64899;42.660;23.268;2023-11-22T04:57:44;28.30;;;15.48;;
29788;SDS011;64899;42.660;23.268;2023-11-22T05:00:10;31.17;;;17.30;;
29788;SDS011;64899;42.660;23.268;2023-11-22T05:02:36;28.27;;;16.38;;
29788;SDS011;64899;42.660;23.268;2023-11-22T05:05:02;22.85;;;15.50;;
29788;SDS011;64899;42.660;23.268;2023-11-22T05:07:28;26.80;;;16.10;;
29788;SDS011;64899;42.660;23.268;2023-11-22T05:09:54;27.92;;;14.95;;
29788;SDS011;64899;42.660;23.268;2023-11-22T05:12:20;27.75;;;15.77;;
29788;SDS011;64899;42.660;23.268;2023-11-22T05:14:45;32.33;;;15.35;;
29788;SDS011;64899;42.660;23.268;2023-11-22T05:17:11;30.92;;;16.17;;
29788;SDS011;64899;42.660;23.268;2023-11-22T05:19:37;27.60;;;15.98;;
29788;SDS011;64899;42.660;23.268;2023-11-22T05:22:03;32.63;;;16.85;;
29788;SDS011;64899;42.660;23.268;2023-11-22T05:24:28;32.47;;;16.75;;
29788;SDS011;64899;42.660;23.268;2023-11-22T05:26:53;32.63;;;16.40;;
29788;SDS011;64899;42.660;23.268;2023-11-22T05:29:19;30.02;;;17.52;;
29788;SDS011;64899;42.660;23.268;2023-11-22T05:31:45;24.60;;;15.05;;
29788;SDS011;64899;42.660;23.268;2023-11-22T05:34:10;28.13;;;16.85;;
29788;SDS011;64899;42.660;23.268;2023-11-22T05:36:35;33.28;;;16.45;;
29788;SDS011;64899;42.660;23.268;2023-11-22T05:39:01;27.00;;;16.48;;
29788;SDS011;64899;42.660;23.268;2023-11-22T05:41:28;29.30;;;15.98;;
29788;SDS011;64899;42.660;23.268;2023-11-22T05:43:54;25.92;;;16.25;;
29788;SDS011;64899;42.660;23.268;2023-11-22T05:46:19;28.60;;;16.63;;
29788;SDS011;64899;42.660;23.268;2023-11-22T05:48:50;27.63;;;16.77;;
29788;SDS011;64899;42.660;23.268;2023-11-22T05:51:16;27.73;;;17.20;;
29788;SDS011;64899;42.660;23.268;2023-11-22T05:53:42;29.95;;;17.23;;
29788;SDS011;64899;42.660;23.268;2023-11-22T05:56:07;30.25;;;17.80;;
29788;SDS011;64899;42.660;23.268;2023-11-22T05:58:34;28.83;;;16.25;;
29788;SDS011;64899;42.660;23.268;2023-11-22T06:01:02;35.80;;;17.83;;
29788;SDS011;64899;42.660;23.268;2023-11-22T06:03:27;30.48;;;17.83;;
29788;SDS011;64899;42.660;23.268;2023-11-22T06:05:53;28.73;;;17.55;;
29788;SDS011;64899;42.660;23.268;2023-11-22T06:08:18;27.98;;;18.25;;
29788;SDS011;64899;42.660;23.268;2023-11-22T06:10:44;28.55;;;17.20;;
29788;SDS011;64899;42.660;23.268;2023-11-22T06:13:09;30.63;;;18.90;;
29788;SDS011;64899;42.660;23.268;2023-11-22T06:15:35;27.63;;;17.08;;
29788;SDS011;64899;42.660;23.268;2023-11-22T06:18:00;27.52;;;16.98;;
29788;SDS011;64899;42.660;23.268;2023-11-22T06:20:26;29.00;;;17.33;;
29788;SDS011;64899;42.660;23.268;2023-11-22T06:22:52;27.73;;;17.67;;
29788;SDS011;64899;42.660;23.268;2023-11-22T06:25:17;30.55;;;17.80;;
29788;SDS011;64899;42.660;23.268;2023-11-22T06:27:43;34.22;;;20.13;;
29788;SDS011;64899;42.660;23.268;2023-11-22T06:30:08;40.65;;;20.30;;
29788;SDS011;64899;42.660;23.268;2023-11-22T06:32:36;30.77;;;18.02;;
29788;SDS011;64899;42.660;23.268;2023-11-22T06:35:02;31.73;;;18.60;;
29788;SDS011;64899;42.660;23.268;2023-11-22T06:37:28;31.98;;;18.90;;
29788;SDS011;64899;42.660;23.268;2023-11-22T06:39:53;35.95;;;20.85;;
29788;SDS011;64899;42.660;23.268;2023-11-22T06:42:19;31.63;;;19.33;;
29788;SDS011;64899;42.660;23.268;2023-11-22T06:44:47;29.25;;;19.02;;
29788;SDS011;64899;42.660;23.268;2023-11-22T06:47:18;32.22;;;20.90;;
29788;SDS011;64899;42.660;23.268;2023-11-22T06:49:43;37.92;;;22.42;;
29788;SDS011;64899;42.660;23.268;2023-11-22T06:52:09;41.33;;;22.65;;
29788;SDS011;64899;42.660;23.268;2023-11-22T06:54:34;38.22;;;23.35;;
29788;SDS011;64899;42.660;23.268;2023-11-22T06:57:00;39.38;;;25.63;;
29788;SDS011;64899;42.660;23.268;2023-11-22T06:59:25;39.70;;;24.67;;
29788;SDS011;64899;42.660;23.268;2023-11-22T07:01:51;40.53;;;24.20;;
29788;SDS011;64899;42.660;23.268;2023-11-22T07:04:16;38.33;;;24.13;;
29788;SDS011;64899;42.660;23.268;2023-11-22T07:06:41;40.72;;;23.67;;
29788;SDS011;64899;42.660;23.268;2023-11-22T07:09:09;43.80;;;24.15;;
29788;SDS011;64899;42.660;23.268;2023-11-22T07:11:35;39.55;;;22.98;;
29788;SDS011;64899;42.660;23.268;2023-11-22T07:14:02;40.08;;;23.65;;
29788;SDS011;64899;42.660;23.268;2023-11-22T07:16:28;41.15;;;23.90;;
29788;SDS011;64899;42.660;23.268;2023-11-22T07:18:54;39.40;;;24.42;;
29788;SDS011;64899;42.660;23.268;2023-11-22T07:21:20;37.40;;;23.25;;
29788;SDS011;64899;42.660;23.268;2023-11-22T07:23:48;31.20;;;21.52;;
29788;SDS011;64899;42.660;23.268;2023-11-22T07:26:13;44.45;;;22.60;;
29788;SDS011;64899;42.660;23.268;2023-11-22T07:28:41;36.72;;;21.38;;
29788;SDS011;64899;42.660;23.268;2023-11-22T07:31:07;35.90;;;20.77;;
29788;SDS011;64899;42.660;23.268;2023-11-22T07:33:33;28.98;;;17.33;;
29788;SDS011;64899;42.660;23.268;2023-11-22T07:35:58;28.33;;;16.67;;
29788;SDS011;64899;42.660;23.268;2023-11-22T07:38:24;23.85;;;15.02;;
29788;SDS011;64899;42.660;23.268;2023-11-22T07:40:50;27.27;;;17.73;;
29788;SDS011;64899;42.660;23.268;2023-11-22T07:43:16;30.73;;;18.25;;
29788;SDS011;64899;42.660;23.268;2023-11-22T07:45:41;34.45;;;19.48;;
29788;SDS011;64899;42.660;23.268;2023-11-22T07:48:08;32.45;;;18.08;;
29788;SDS011;64899;42.660;23.268;2023-11-22T07:50:37;30.52;;;19.80;;
29788;SDS011;64899;42.660;23.268;2023-11-22T07:53:03;31.92;;;16.90;;
29788;SDS011;64899;42.660;23.268;2023-11-22T07:55:29;29.65;;;18.38;;
29788;SDS011;64899;42.660;23.268;2023-11-22T07:57:55;32.92;;;21.27;;
29788;SDS011;64899;42.660;23.268;2023-11-22T08:00:21;32.47;;;20.35;;
29788;SDS011;64899;42.660;23.268;2023-11-22T08:02:47;33.28;;;21.52;;
29788;SDS011;64899;42.660;23.268;2023-11-22T08:05:13;36.20;;;22.65;;
29788;SDS011;64899;42.660;23.268;2023-11-22T08:07:40;36.72;;;21.92;;
29788;SDS011;64899;42.660;23.268;2023-11-22T08:10:10;37.38;;;22.65;;
29788;SDS011;64899;42.660;23.268;2023-11-22T08:12:47;35.13;;;21.65;;
29788;SDS011;64899;42.660;23.268;2023-11-22T08:15:15;34.25;;;20.45;;
29788;SDS011;64899;42.660;23.268;2023-11-22T08:17:41;37.58;;;21.45;;
29788;SDS011;64899;42.660;23.268;2023-11-22T08:20:07;32.90;;;20.45;;
29788;SDS011;64899;42.660;23.268;2023-11-22T08:22:38;32.38;;;21.13;;
29788;SDS011;64899;42.660;23.268;2023-11-22T08:25:04;35.28;;;21.98;;
29788;SDS011;64899;42.660;23.268;2023-11-22T08:27:33;35.65;;;20.42;;
29788;SDS011;64899;42.660;23.268;2023-11-22T08:29:59;31.15;;;19.85;;
29788;SDS011;64899;42.660;23.268;2023-11-22T08:32:26;27.80;;;17.60;;
29788;SDS011;64899;42.660;23.268;2023-11-22T08:34:55;28.90;;;17.15;;
29788;SDS011;64899;42.660;23.268;2023-11-22T08:37:21;24.23;;;15.60;;
29788;SDS011;64899;42.660;23.268;2023-11-22T08:39:46;26.80;;;16.40;;
29788;SDS011;64899;42.660;23.268;2023-11-22T08:42:12;27.40;;;16.00;;
29788;SDS011;64899;42.660;23.268;2023-11-22T08:44:39;26.13;;;15.38;;
29788;SDS011;64899;42.660;23.268;2023-11-22T08:47:04;21.83;;;13.88;;
29788;SDS011;64899;42.660;23.268;2023-11-22T08:49:30;19.55;;;12.77;;
29788;SDS011;64899;42.660;23.268;2023-11-22T08:51:58;21.58;;;13.48;;
29788;SDS011;64899;42.660;23.268;2023-11-22T08:54:24;26.02;;;14.40;;
29788;SDS011;64899;42.660;23.268;2023-11-22T08:56:53;26.95;;;15.80;;
29788;SDS011;64899;42.660;23.268;2023-11-22T08:59:22;21.95;;;14.73;;
29788;SDS011;64899;42.660;23.268;2023-11-22T09:01:47;27.90;;;14.98;;
29788;SDS011;64899;42.660;23.268;2023-11-22T09:04:12;24.08;;;15.20;;
29788;SDS011;64899;42.660;23.268;2023-11-22T09:06:38;24.98;;;14.15;;
29788;SDS011;64899;42.660;23.268;2023-11-22T09:09:04;22.92;;;15.63;;
29788;SDS011;64899;42.660;23.268;2023-11-22T09:11:30;28.88;;;16.95;;
29788;SDS011;64899;42.660;23.268;2023-11-22T09:13:56;28.67;;;16.38;;
29788;SDS011;64899;42.660;23.268;2023-11-22T09:16:22;28.05;;;17.52;;
29788;SDS011;64899;42.660;23.268;2023-11-22T09:18:50;29.33;;;17.38;;
29788;SDS011;64899;42.660;23.268;2023-11-22T09:21:16;37.15;;;23.05;;
29788;SDS011;64899;42.660;23.268;2023-11-22T09:23:42;38.95;;;25.00;;
29788;SDS011;64899;42.660;23.268;2023-11-22T09:26:07;46.88;;;25.55;;
29788;SDS011;64899;42.660;23.268;2023-11-22T09:28:33;52.50;;;32.20;;
29788;SDS011;64899;42.660;23.268;2023-11-22T09:30:58;63.85;;;36.97;;
29788;SDS011;64899;42.660;23.268;2023-11-22T09:33:30;71.55;;;40.67;;
29788;SDS011;64899;42.660;23.268;2023-11-22T09:35:56;83.78;;;50.25;;
29788;SDS011;64899;42.660;23.268;2023-11-22T09:38:23;73.88;;;47.78;;
29788;SDS011;64899;42.660;23.268;2023-11-22T09:40:48;71.68;;;47.58;;
29788;SDS011;64899;42.660;23.268;2023-11-22T09:43:16;71.93;;;45.30;;
29788;SDS011;64899;42.660;23.268;2023-11-22T09:45:46;69.53;;;41.97;;
29788;SDS011;64899;42.660;23.268;2023-11-22T09:48:19;63.13;;;39.78;;
29788;SDS011;64899;42.660;23.268;2023-11-22T09:53:36;64.70;;;39.03;;
29788;SDS011;64899;42.660;23.268;2023-11-22T09:56:13;56.67;;;35.38;;
29788;SDS011;64899;42.660;23.268;2023-11-22T09:58:40;57.92;;;35.28;;
29788;SDS011;64899;42.660;23.268;2023-11-22T10:01:08;54.42;;;32.53;;
29788;SDS011;64899;42.660;23.268;2023-11-22T10:03:38;52.28;;;32.38;;
29788;SDS011;64899;42.660;23.268;2023-11-22T10:06:04;44.22;;;27.13;;
29788;SDS011;64899;42.660;23.268;2023-11-22T10:08:30;45.92;;;26.40;;
29788;SDS011;64899;42.660;23.268;2023-11-22T10:10:56;41.70;;;24.95;;
29788;SDS011;64899;42.660;23.268;2023-11-22T10:13:22;40.47;;;24.83;;
29788;SDS011;64899;42.660;23.268;2023-11-22T10:15:48;30.98;;;21.10;;
29788;SDS011;64899;42.660;23.268;2023-11-22T10:18:14;38.80;;;21.58;;
29788;SDS011;64899;42.660;23.268;2023-11-22T10:20:43;37.28;;;21.73;;
29788;SDS011;64899;42.660;23.268;2023-11-22T10:23:12;37.05;;;21.10;;
29788;SDS011;64899;42.660;23.268;2023-11-22T10:25:49;35.38;;;21.80;;
29788;SDS011;64899;42.660;23.268;2023-11-22T10:28:16;30.40;;;19.42;;
29788;SDS011;64899;42.660;23.268;2023-11-22T10:30:45;29.92;;;18.52;;
29788;SDS011;64899;42.660;23.268;2023-11-22T10:33:11;32.25;;;20.52;;
29788;SDS011;64899;42.660;23.268;2023-11-22T10:35:46;37.58;;;21.45;;
29788;SDS011;64899;42.660;23.268;2023-11-22T10:38:16;33.28;;;21.02;;
29788;SDS011;64899;42.660;23.268;2023-11-22T10:40:42;33.40;;;21.20;;
29788;SDS011;64899;42.660;23.268;2023-11-22T10:43:10;29.50;;;20.15;;
29788;SDS011;64899;42.660;23.268;2023-11-22T10:45:36;35.42;;;22.23;;
29788;SDS011;64899;42.660;23.268;2023-11-22T10:48:02;36.47;;;20.98;;
29788;SDS011;64899;42.660;23.268;2023-11-22T10:50:28;34.28;;;23.63;;
29788;SDS011;64899;42.660;23.268;2023-11-22T10:52:56;35.35;;;22.23;;
29788;SDS011;64899;42.660;23.268;2023-11-22T10:55:26;36.03;;;22.58;;
29788;SDS011;64899;42.660;23.268;2023-11-22T10:57:52;30.75;;;20.55;;
29788;SDS011;64899;42.660;23.268;2023-11-22T11:00:20;32.55;;;21.90;;
29788;SDS011;64899;42.660;23.268;2023-11-22T11:02:49;32.53;;;20.80;;
29788;SDS011;64899;42.660;23.268;2023-11-22T11:05:18;33.60;;;20.67;;
29788;SDS011;64899;42.660;23.268;2023-11-22T11:08:14;36.28;;;21.33;;
29788;SDS011;64899;42.660;23.268;2023-11-22T11:10:41;36.75;;;20.90;;
29788;SDS011;64899;42.660;23.268;2023-11-22T11:13:08;35.40;;;22.02;;
29788;SDS011;64899;42.660;23.268;2023-11-22T11:15:34;40.38;;;23.30;;
29788;SDS011;64899;42.660;23.268;2023-11-22T11:18:01;45.08;;;23.90;;
29788;SDS011;64899;42.660;23.268;2023-11-22T11:20:31;46.53;;;24.90;;
29788;SDS011;64899;42.660;23.268;2023-11-22T11:22:57;40.83;;;23.63;;
29788;SDS011;64899;42.660;23.268;2023-11-22T11:25:23;42.90;;;22.30;;
29788;SDS011;64899;42.660;23.268;2023-11-22T11:27:55;38.90;;;21.88;;
29788;SDS011;64899;42.660;23.268;2023-11-22T11:30:44;41.38;;;22.80;;
29788;SDS011;64899;42.660;23.268;2023-11-22T11:33:13;37.75;;;22.23;;
29788;SDS011;64899;42.660;23.268;2023-11-22T11:35:48;34.58;;;20.98;;
29788;SDS011;64899;42.660;23.268;2023-11-22T11:38:15;35.10;;;22.37;;
29788;SDS011;64899;42.660;23.268;2023-11-22T11:40:47;34.90;;;20.70;;
29788;SDS011;64899;42.660;23.268;2023-11-22T11:43:13;34.42;;;20.30;;
29788;SDS011;64899;42.660;23.268;2023-11-22T11:45:39;30.35;;;19.30;;
29788;SDS011;64899;42.660;23.268;2023-11-22T11:48:10;31.40;;;20.65;;
29788;SDS011;64899;42.660;23.268;2023-11-22T11:50:36;28.05;;;19.15;;
29788;SDS011;64899;42.660;23.268;2023-11-22T11:53:01;29.85;;;19.33;;
29788;SDS011;64899;42.660;23.268;2023-11-22T11:55:27;30.73;;;19.55;;
29788;SDS011;64899;42.660;23.268;2023-11-22T11:57:55;35.88;;;18.95;;
29788;SDS011;64899;42.660;23.268;2023-11-22T12:00:21;32.38;;;20.23;;
29788;SDS011;64899;42.660;23.268;2023-11-22T12:02:49;33.22;;;22.35;;
29788;SDS011;64899;42.660;23.268;2023-11-22T12:05:14;41.22;;;23.77;;
29788;SDS011;64899;42.660;23.268;2023-11-22T12:07:40;38.10;;;22.45;;
29788;SDS011;64899;42.660;23.268;2023-11-22T12:10:05;38.42;;;22.83;;
29788;SDS011;64899;42.660;23.268;2023-11-22T12:12:31;35.55;;;22.40;;
29788;SDS011;64899;42.660;23.268;2023-11-22T12:14:57;41.63;;;22.35;;
29788;SDS011;64899;42.660;23.268;2023-11-22T12:17:24;39.20;;;23.40;;
29788;SDS011;64899;42.660;23.268;2023-11-22T12:19:51;39.97;;;23.42;;
29788;SDS011;64899;42.660;23.268;2023-11-22T12:22:16;37.25;;;23.98;;
29788;SDS011;64899;42.660;23.268;2023-11-22T12:24:42;37.30;;;23.27;;
29788;SDS011;64899;42.660;23.268;2023-11-22T12:27:10;34.42;;;21.55;;
29788;SDS011;64899;42.660;23.268;2023-11-22T12:29:36;35.38;;;22.45;;
29788;SDS011;64899;42.660;23.268;2023-11-22T12:32:02;38.17;;;24.00;;
29788;SDS011;64899;42.660;23.268;2023-11-22T12:34:27;33.08;;;21.25;;
29788;SDS011;64899;42.660;23.268;2023-11-22T12:36:55;38.10;;;23.83;;
29788;SDS011;64899;42.660;23.268;2023-11-22T12:39:21;37.10;;;23.63;;
29788;SDS011;64899;42.660;23.268;2023-11-22T12:41:47;48.10;;;29.95;;
29788;SDS011;64899;42.660;23.268;2023-11-22T12:44:16;66.47;;;40.33;;
29788;SDS011;64899;42.660;23.268;2023-11-22T12:46:48;75.13;;;48.10;;
29788;SDS011;64899;42.660;23.268;2023-11-22T12:49:17;71.25;;;47.55;;
29788;SDS011;64899;42.660;23.268;2023-11-22T12:51:48;65.25;;;42.45;;
29788;SDS011;64899;42.660;23.268;2023-11-22T12:54:17;66.72;;;41.53;;
29788;SDS011;64899;42.660;23.268;2023-11-22T12:56:45;63.35;;;41.00;;
29788;SDS011;64899;42.660;23.268;2023-11-22T12:59:10;64.45;;;41.70;;
29788;SDS011;64899;42.660;23.268;2023-11-22T13:01:35;63.10;;;41.72;;
29788;SDS011;64899;42.660;23.268;2023-11-22T13:04:01;71.53;;;45.13;;
29788;SDS011;64899;42.660;23.268;2023-11-22T13:06:26;70.28;;;45.17;;
29788;SDS011;64899;42.660;23.268;2023-11-22T13:08:52;64.22;;;43.50;;
29788;SDS011;64899;42.660;23.268;2023-11-22T13:11:20;59.92;;;42.28;;
29788;SDS011;64899;42.660;23.268;2023-11-22T13:13:46;60.63;;;42.88;;
29788;SDS011;64899;42.660;23.268;2023-11-22T13:16:12;65.38;;;43.65;;
29788;SDS011;64899;42.660;23.268;2023-11-22T13:18:39;66.75;;;43.83;;
29788;SDS011;64899;42.660;23.268;2023-11-22T13:21:04;61.83;;;41.05;;
29788;SDS011;64899;42.660;23.268;2023-11-22T13:23:30;58.63;;;40.60;;
29788;SDS011;64899;42.660;23.268;2023-11-22T13:25:55;61.72;;;40.45;;
29788;SDS011;64899;42.660;23.268;2023-11-22T13:28:21;56.28;;;38.05;;
29788;SDS011;64899;42.660;23.268;2023-11-22T13:30:49;52.40;;;36.67;;
29788;SDS011;64899;42.660;23.268;2023-11-22T13:33:15;54.25;;;36.22;;
29788;SDS011;64899;42.660;23.268;2023-11-22T13:35:41;52.90;;;35.78;;
29788;SDS011;64899;42.660;23.268;2023-11-22T13:38:06;51.28;;;36.75;;
29788;SDS011;64899;42.660;23.268;2023-11-22T13:40:38;54.25;;;34.80;;
29788;SDS011;64899;42.660;23.268;2023-11-22T13:43:10;58.92;;;34.95;;
29788;SDS011;64899;42.660;23.268;2023-11-22T13:45:38;58.45;;;34.78;;
29788;SDS011;64899;42.660;23.268;2023-11-22T13:48:06;52.35;;;34.67;;
29788;SDS011;64899;42.660;23.268;2023-11-22T13:50:34;54.08;;;34.40;;
29788;SDS011;64899;42.660;23.268;2023-11-22T13:53:00;56.00;;;35.55;;
29788;SDS011;64899;42.660;23.268;2023-11-22T13:55:25;51.22;;;33.47;;
29788;SDS011;64899;42.660;23.268;2023-11-22T13:57:51;48.50;;;30.60;;
29788;SDS011;64899;42.660;23.268;2023-11-22T14:00:18;45.97;;;27.58;;
29788;SDS011;64899;42.660;23.268;2023-11-22T14:02:45;46.78;;;27.20;;
29788;SDS011;64899;42.660;23.268;2023-11-22T14:05:11;38.22;;;23.88;;
29788;SDS011;64899;42.660;23.268;2023-11-22T14:07:37;34.20;;;21.38;;